sensor_id;sensor_type;location;lat;lon;timestamp;P1;durP1;ratioP1;P2;durP2;ratioP2
71127;SDS011;59249;59.736;30.568;2022-07-10T00:00:26;7.05;;;5.25;;
71127;SDS011;59249;59.736;30.568;2022-07-10T00:02:56;7.10;;;4.07;;
71127;SDS011;59249;59.736;30.568;2022-07-10T00:05:25;5.35;;;3.85;;
71127;SDS011;59249;59.736;30.568;2022-07-10T00:07:54;7.05;;;4.90;;
71127;SDS011;59249;59.736;30.568;2022-07-10T00:10:23;6.47;;;4.50;;
71127;SDS011;59249;59.736;30.568;2022-07-10T00:12:52;6.22;;;4.13;;
71127;SDS011;59249;59.736;30.568;2022-07-10T00:15:20;6.10;;;4.32;;
71127;SDS011;59249;59.736;30.568;2022-07-10T00:17:49;7.47;;;4.50;;
71127;SDS011;59249;59.736;30.568;2022-07-10T00:20:19;5.80;;;4.45;;
71127;SDS011;59249;59.736;30.568;2022-07-10T00:22:48;6.17;;;4.47;;
71127;SDS011;59249;59.736;30.568;2022-07-10T00:25:16;6.57;;;4.50;;
71127;SDS011;59249;59.736;30.568;2022-07-10T00:27:45;6.07;;;3.80;;
71127;SDS011;59249;59.736;30.568;2022-07-10T00:30:13;6.90;;;4.35;;
71127;SDS011;59249;59.736;30.568;2022-07-10T00:32:42;6.10;;;4.22;;
71127;SDS011;59249;59.736;30.568;2022-07-10T00:35:10;6.57;;;4.50;;
71127;SDS011;59249;59.736;30.568;2022-07-10T00:37:40;7.90;;;4.50;;
71127;SDS011;59249;59.736;30.568;2022-07-10T00:40:09;6.43;;;4.25;;
71127;SDS011;59249;59.736;30.568;2022-07-10T00:42:39;6.22;;;4.10;;
71127;SDS011;59249;59.736;30.568;2022-07-10T00:45:07;7.70;;;3.88;;
71127;SDS011;59249;59.736;30.568;2022-07-10T00:47:37;5.20;;;3.43;;
71127;SDS011;59249;59.736;30.568;2022-07-10T00:50:06;6.50;;;4.05;;
71127;SDS011;59249;59.736;30.568;2022-07-10T00:52:35;8.50;;;4.93;;
71127;SDS011;59249;59.736;30.568;2022-07-10T00:55:10;7.93;;;4.20;;
71127;SDS011;59249;59.736;30.568;2022-07-10T00:57:39;9.98;;;5.28;;
71127;SDS011;59249;59.736;30.568;2022-07-10T01:00:08;5.67;;;3.87;;
71127;SDS011;59249;59.736;30.568;2022-07-10T01:02:39;7.25;;;3.90;;
71127;SDS011;59249;59.736;30.568;2022-07-10T01:05:10;6.32;;;4.45;;
71127;SDS011;59249;59.736;30.568;2022-07-10T01:07:39;6.00;;;4.82;;
71127;SDS011;59249;59.736;30.568;2022-07-10T01:10:09;6.97;;;5.07;;
71127;SDS011;59249;59.736;30.568;2022-07-10T01:12:38;7.63;;;5.13;;
71127;SDS011;59249;59.736;30.568;2022-07-10T01:15:07;8.65;;;4.53;;
71127;SDS011;59249;59.736;30.568;2022-07-10T01:17:36;7.45;;;4.38;;
71127;SDS011;59249;59.736;30.568;2022-07-10T01:20:05;6.70;;;4.55;;
71127;SDS011;59249;59.736;30.568;2022-07-10T01:22:37;5.90;;;4.70;;
71127;SDS011;59249;59.736;30.568;2022-07-10T01:25:06;5.90;;;4.20;;
71127;SDS011;59249;59.736;30.568;2022-07-10T01:27:50;7.28;;;4.85;;
71127;SDS011;59249;59.736;30.568;2022-07-10T01:30:32;6.95;;;4.80;;
71127;SDS011;59249;59.736;30.568;2022-07-10T01:33:01;5.50;;;4.25;;
71127;SDS011;59249;59.736;30.568;2022-07-10T01:35:29;5.97;;;4.43;;
71127;SDS011;59249;59.736;30.568;2022-07-10T01:37:59;5.57;;;3.70;;
71127;SDS011;59249;59.736;30.568;2022-07-10T01:40:28;7.93;;;4.65;;
71127;SDS011;59249;59.736;30.568;2022-07-10T01:42:57;6.80;;;4.47;;
71127;SDS011;59249;59.736;30.568;2022-07-10T01:45:26;6.05;;;4.18;;
71127;SDS011;59249;59.736;30.568;2022-07-10T01:47:54;6.63;;;4.68;;
71127;SDS011;59249;59.736;30.568;2022-07-10T01:50:24;6.57;;;5.00;;
71127;SDS011;59249;59.736;30.568;2022-07-10T01:52:52;7.78;;;5.50;;
71127;SDS011;59249;59.736;30.568;2022-07-10T01:55:22;7.07;;;5.40;;
71127;SDS011;59249;59.736;30.568;2022-07-10T01:57:51;8.27;;;5.50;;
71127;SDS011;59249;59.736;30.568;2022-07-10T02:00:20;7.60;;;5.07;;
71127;SDS011;59249;59.736;30.568;2022-07-10T02:02:48;7.17;;;5.07;;
71127;SDS011;59249;59.736;30.568;2022-07-10T02:05:30;8.88;;;5.25;;
71127;SDS011;59249;59.736;30.568;2022-07-10T02:07:59;8.88;;;5.70;;
71127;SDS011;59249;59.736;30.568;2022-07-10T02:10:31;7.43;;;4.90;;
71127;SDS011;59249;59.736;30.568;2022-07-10T02:13:00;7.75;;;4.38;;
71127;SDS011;59249;59.736;30.568;2022-07-10T02:15:49;7.33;;;5.07;;
71127;SDS011;59249;59.736;30.568;2022-07-10T02:18:17;9.55;;;5.55;;
71127;SDS011;59249;59.736;30.568;2022-07-10T02:20:46;7.03;;;4.95;;
71127;SDS011;59249;59.736;30.568;2022-07-10T02:23:15;6.90;;;4.82;;
71127;SDS011;59249;59.736;30.568;2022-07-10T02:25:45;6.53;;;5.10;;
71127;SDS011;59249;59.736;30.568;2022-07-10T02:28:13;8.10;;;5.50;;
71127;SDS011;59249;59.736;30.568;2022-07-10T02:30:42;21.58;;;5.53;;
71127;SDS011;59249;59.736;30.568;2022-07-10T02:33:10;7.40;;;4.45;;
71127;SDS011;59249;59.736;30.568;2022-07-10T02:35:39;7.75;;;5.22;;
71127;SDS011;59249;59.736;30.568;2022-07-10T02:38:07;5.80;;;4.45;;
71127;SDS011;59249;59.736;30.568;2022-07-10T02:40:40;8.17;;;4.80;;
71127;SDS011;59249;59.736;30.568;2022-07-10T02:43:10;6.97;;;4.45;;
71127;SDS011;59249;59.736;30.568;2022-07-10T02:45:40;8.43;;;5.03;;
71127;SDS011;59249;59.736;30.568;2022-07-10T02:48:12;8.10;;;4.78;;
71127;SDS011;59249;59.736;30.568;2022-07-10T02:50:42;6.97;;;5.50;;
71127;SDS011;59249;59.736;30.568;2022-07-10T02:53:11;9.20;;;4.70;;
71127;SDS011;59249;59.736;30.568;2022-07-10T02:55:39;7.82;;;4.55;;
71127;SDS011;59249;59.736;30.568;2022-07-10T02:58:08;7.40;;;5.03;;
71127;SDS011;59249;59.736;30.568;2022-07-10T03:00:38;7.88;;;4.88;;
71127;SDS011;59249;59.736;30.568;2022-07-10T03:03:08;7.30;;;6.00;;
71127;SDS011;59249;59.736;30.568;2022-07-10T03:05:36;8.80;;;5.60;;
71127;SDS011;59249;59.736;30.568;2022-07-10T03:08:05;6.93;;;5.53;;
71127;SDS011;59249;59.736;30.568;2022-07-10T03:10:33;9.23;;;5.32;;
71127;SDS011;59249;59.736;30.568;2022-07-10T03:13:02;8.27;;;5.65;;
71127;SDS011;59249;59.736;30.568;2022-07-10T03:15:30;7.45;;;5.63;;
71127;SDS011;59249;59.736;30.568;2022-07-10T03:18:00;8.03;;;5.97;;
71127;SDS011;59249;59.736;30.568;2022-07-10T03:20:29;8.82;;;6.30;;
71127;SDS011;59249;59.736;30.568;2022-07-10T03:22:57;7.90;;;6.10;;
71127;SDS011;59249;59.736;30.568;2022-07-10T03:25:26;6.75;;;5.47;;
71127;SDS011;59249;59.736;30.568;2022-07-10T03:27:54;9.63;;;6.53;;
71127;SDS011;59249;59.736;30.568;2022-07-10T03:30:23;8.63;;;5.87;;
71127;SDS011;59249;59.736;30.568;2022-07-10T03:32:52;7.57;;;6.28;;
71127;SDS011;59249;59.736;30.568;2022-07-10T03:35:22;8.23;;;5.90;;
71127;SDS011;59249;59.736;30.568;2022-07-10T03:37:52;9.73;;;5.80;;
71127;SDS011;59249;59.736;30.568;2022-07-10T03:40:21;10.40;;;5.95;;
71127;SDS011;59249;59.736;30.568;2022-07-10T03:42:49;8.73;;;6.03;;
71127;SDS011;59249;59.736;30.568;2022-07-10T03:45:18;7.38;;;5.40;;
71127;SDS011;59249;59.736;30.568;2022-07-10T03:47:46;7.68;;;5.82;;
71127;SDS011;59249;59.736;30.568;2022-07-10T03:50:15;8.30;;;6.47;;
71127;SDS011;59249;59.736;30.568;2022-07-10T03:52:45;7.85;;;6.30;;
71127;SDS011;59249;59.736;30.568;2022-07-10T03:55:14;7.90;;;5.93;;
71127;SDS011;59249;59.736;30.568;2022-07-10T03:57:42;7.15;;;5.43;;
71127;SDS011;59249;59.736;30.568;2022-07-10T04:00:24;8.30;;;6.25;;
71127;SDS011;59249;59.736;30.568;2022-07-10T04:02:54;9.60;;;5.75;;
71127;SDS011;59249;59.736;30.568;2022-07-10T04:05:24;7.20;;;5.32;;
71127;SDS011;59249;59.736;30.568;2022-07-10T04:07:56;7.77;;;5.73;;
71127;SDS011;59249;59.736;30.568;2022-07-10T04:10:25;8.57;;;5.63;;
71127;SDS011;59249;59.736;30.568;2022-07-10T04:12:55;8.00;;;5.30;;
71127;SDS011;59249;59.736;30.568;2022-07-10T04:15:23;8.38;;;5.78;;
71127;SDS011;59249;59.736;30.568;2022-07-10T04:17:52;7.07;;;5.88;;
71127;SDS011;59249;59.736;30.568;2022-07-10T04:20:21;7.70;;;6.33;;
71127;SDS011;59249;59.736;30.568;2022-07-10T04:22:50;8.05;;;6.45;;
71127;SDS011;59249;59.736;30.568;2022-07-10T04:25:20;8.77;;;6.80;;
71127;SDS011;59249;59.736;30.568;2022-07-10T04:27:48;6.82;;;5.57;;
71127;SDS011;59249;59.736;30.568;2022-07-10T04:30:17;10.63;;;5.90;;
71127;SDS011;59249;59.736;30.568;2022-07-10T04:32:45;6.70;;;5.10;;
71127;SDS011;59249;59.736;30.568;2022-07-10T04:35:14;7.53;;;5.95;;
71127;SDS011;59249;59.736;30.568;2022-07-10T04:37:42;8.15;;;6.22;;
71127;SDS011;59249;59.736;30.568;2022-07-10T04:40:11;11.02;;;6.03;;
71127;SDS011;59249;59.736;30.568;2022-07-10T04:42:41;7.05;;;5.88;;
71127;SDS011;59249;59.736;30.568;2022-07-10T04:45:09;7.10;;;5.47;;
71127;SDS011;59249;59.736;30.568;2022-07-10T04:47:38;10.60;;;5.63;;
71127;SDS011;59249;59.736;30.568;2022-07-10T04:50:07;9.18;;;5.80;;
71127;SDS011;59249;59.736;30.568;2022-07-10T04:52:36;7.63;;;5.50;;
71127;SDS011;59249;59.736;30.568;2022-07-10T04:55:05;8.30;;;6.10;;
71127;SDS011;59249;59.736;30.568;2022-07-10T04:57:36;8.37;;;6.23;;
71127;SDS011;59249;59.736;30.568;2022-07-10T05:00:07;8.82;;;6.15;;
71127;SDS011;59249;59.736;30.568;2022-07-10T05:02:37;8.85;;;6.68;;
71127;SDS011;59249;59.736;30.568;2022-07-10T05:05:06;11.38;;;7.60;;
71127;SDS011;59249;59.736;30.568;2022-07-10T05:07:35;9.77;;;6.45;;
71127;SDS011;59249;59.736;30.568;2022-07-10T05:10:04;8.93;;;6.63;;
71127;SDS011;59249;59.736;30.568;2022-07-10T05:12:33;11.27;;;7.18;;
71127;SDS011;59249;59.736;30.568;2022-07-10T05:15:01;10.82;;;7.10;;
71127;SDS011;59249;59.736;30.568;2022-07-10T05:17:32;9.23;;;6.68;;
71127;SDS011;59249;59.736;30.568;2022-07-10T05:20:00;9.88;;;7.70;;
71127;SDS011;59249;59.736;30.568;2022-07-10T05:22:29;9.53;;;7.53;;
71127;SDS011;59249;59.736;30.568;2022-07-10T05:24:58;10.65;;;7.22;;
71127;SDS011;59249;59.736;30.568;2022-07-10T05:27:27;9.13;;;7.10;;
71127;SDS011;59249;59.736;30.568;2022-07-10T05:29:56;7.90;;;5.63;;
71127;SDS011;59249;59.736;30.568;2022-07-10T05:32:24;8.88;;;5.90;;
71127;SDS011;59249;59.736;30.568;2022-07-10T05:34:56;8.30;;;5.90;;
71127;SDS011;59249;59.736;30.568;2022-07-10T05:37:26;9.18;;;5.90;;
71127;SDS011;59249;59.736;30.568;2022-07-10T05:39:54;8.63;;;5.78;;
71127;SDS011;59249;59.736;30.568;2022-07-10T05:42:23;10.43;;;6.20;;
71127;SDS011;59249;59.736;30.568;2022-07-10T05:44:51;8.93;;;6.15;;
71127;SDS011;59249;59.736;30.568;2022-07-10T05:47:20;9.47;;;5.80;;
71127;SDS011;59249;59.736;30.568;2022-07-10T05:49:49;10.40;;;6.38;;
71127;SDS011;59249;59.736;30.568;2022-07-10T05:52:18;11.18;;;6.55;;
71127;SDS011;59249;59.736;30.568;2022-07-10T05:54:47;10.13;;;4.70;;
71127;SDS011;59249;59.736;30.568;2022-07-10T05:57:16;6.90;;;4.57;;
71127;SDS011;59249;59.736;30.568;2022-07-10T05:59:45;7.30;;;4.33;;
71127;SDS011;59249;59.736;30.568;2022-07-10T06:02:13;6.70;;;4.43;;
71127;SDS011;59249;59.736;30.568;2022-07-10T06:04:50;8.10;;;4.63;;
71127;SDS011;59249;59.736;30.568;2022-07-10T06:07:20;6.45;;;4.30;;
71127;SDS011;59249;59.736;30.568;2022-07-10T06:09:48;6.47;;;4.20;;
71127;SDS011;59249;59.736;30.568;2022-07-10T06:12:17;5.53;;;3.87;;
71127;SDS011;59249;59.736;30.568;2022-07-10T06:14:45;7.68;;;3.92;;
71127;SDS011;59249;59.736;30.568;2022-07-10T06:17:14;6.72;;;4.10;;
71127;SDS011;59249;59.736;30.568;2022-07-10T06:19:42;6.88;;;4.05;;
71127;SDS011;59249;59.736;30.568;2022-07-10T06:22:11;7.55;;;5.10;;
71127;SDS011;59249;59.736;30.568;2022-07-10T06:24:58;6.10;;;4.30;;
71127;SDS011;59249;59.736;30.568;2022-07-10T06:27:29;8.73;;;5.70;;
71127;SDS011;59249;59.736;30.568;2022-07-10T06:29:58;7.30;;;5.40;;
71127;SDS011;59249;59.736;30.568;2022-07-10T06:32:29;8.10;;;5.72;;
71127;SDS011;59249;59.736;30.568;2022-07-10T06:34:58;8.10;;;5.82;;
71127;SDS011;59249;59.736;30.568;2022-07-10T06:37:27;9.30;;;5.93;;
71127;SDS011;59249;59.736;30.568;2022-07-10T06:39:55;7.93;;;5.95;;
71127;SDS011;59249;59.736;30.568;2022-07-10T06:42:25;8.30;;;6.35;;
71127;SDS011;59249;59.736;30.568;2022-07-10T06:44:58;9.20;;;6.85;;
71127;SDS011;59249;59.736;30.568;2022-07-10T06:47:28;12.43;;;7.20;;
71127;SDS011;59249;59.736;30.568;2022-07-10T06:50:14;10.13;;;7.17;;
71127;SDS011;59249;59.736;30.568;2022-07-10T06:52:43;9.13;;;6.70;;
71127;SDS011;59249;59.736;30.568;2022-07-10T06:55:11;9.05;;;6.75;;
71127;SDS011;59249;59.736;30.568;2022-07-10T06:57:41;10.93;;;6.75;;
71127;SDS011;59249;59.736;30.568;2022-07-10T07:00:10;10.43;;;7.00;;
71127;SDS011;59249;59.736;30.568;2022-07-10T07:02:39;10.60;;;7.20;;
71127;SDS011;59249;59.736;30.568;2022-07-10T07:05:08;11.40;;;7.03;;
71127;SDS011;59249;59.736;30.568;2022-07-10T07:07:37;9.30;;;6.90;;
71127;SDS011;59249;59.736;30.568;2022-07-10T07:10:06;9.80;;;6.68;;
71127;SDS011;59249;59.736;30.568;2022-07-10T07:12:36;9.30;;;6.57;;
71127;SDS011;59249;59.736;30.568;2022-07-10T07:15:07;9.60;;;7.17;;
71127;SDS011;59249;59.736;30.568;2022-07-10T07:17:39;9.77;;;7.03;;
71127;SDS011;59249;59.736;30.568;2022-07-10T07:20:25;9.07;;;6.90;;
71127;SDS011;59249;59.736;30.568;2022-07-10T07:23:11;10.50;;;7.10;;
71127;SDS011;59249;59.736;30.568;2022-07-10T07:25:40;8.95;;;6.05;;
71127;SDS011;59249;59.736;30.568;2022-07-10T07:28:13;9.30;;;6.93;;
71127;SDS011;59249;59.736;30.568;2022-07-10T07:30:46;8.63;;;6.20;;
71127;SDS011;59249;59.736;30.568;2022-07-10T07:33:16;10.27;;;7.05;;
71127;SDS011;59249;59.736;30.568;2022-07-10T07:35:45;9.15;;;6.53;;
71127;SDS011;59249;59.736;30.568;2022-07-10T07:38:14;10.80;;;7.13;;
71127;SDS011;59249;59.736;30.568;2022-07-10T07:40:43;9.43;;;6.23;;
71127;SDS011;59249;59.736;30.568;2022-07-10T07:43:12;8.02;;;6.65;;
71127;SDS011;59249;59.736;30.568;2022-07-10T07:45:40;8.77;;;6.68;;
71127;SDS011;59249;59.736;30.568;2022-07-10T07:48:10;8.60;;;6.38;;
71127;SDS011;59249;59.736;30.568;2022-07-10T07:50:39;7.22;;;5.30;;
71127;SDS011;59249;59.736;30.568;2022-07-10T07:53:07;7.17;;;5.10;;
71127;SDS011;59249;59.736;30.568;2022-07-10T07:55:36;8.75;;;5.85;;
71127;SDS011;59249;59.736;30.568;2022-07-10T07:58:05;9.45;;;6.45;;
71127;SDS011;59249;59.736;30.568;2022-07-10T08:00:35;8.65;;;6.05;;
71127;SDS011;59249;59.736;30.568;2022-07-10T08:03:04;9.35;;;5.50;;
71127;SDS011;59249;59.736;30.568;2022-07-10T08:05:34;8.73;;;6.10;;
71127;SDS011;59249;59.736;30.568;2022-07-10T08:08:03;8.52;;;6.55;;
71127;SDS011;59249;59.736;30.568;2022-07-10T08:10:35;8.48;;;6.22;;
71127;SDS011;59249;59.736;30.568;2022-07-10T08:13:11;9.55;;;6.68;;
71127;SDS011;59249;59.736;30.568;2022-07-10T08:15:41;9.05;;;6.20;;
71127;SDS011;59249;59.736;30.568;2022-07-10T08:18:10;7.67;;;6.17;;
71127;SDS011;59249;59.736;30.568;2022-07-10T08:20:43;8.23;;;6.10;;
71127;SDS011;59249;59.736;30.568;2022-07-10T08:23:11;8.57;;;5.63;;
71127;SDS011;59249;59.736;30.568;2022-07-10T08:25:40;6.85;;;4.97;;
71127;SDS011;59249;59.736;30.568;2022-07-10T08:28:08;11.05;;;6.20;;
71127;SDS011;59249;59.736;30.568;2022-07-10T08:30:38;8.80;;;5.63;;
71127;SDS011;59249;59.736;30.568;2022-07-10T08:33:08;7.00;;;5.88;;
71127;SDS011;59249;59.736;30.568;2022-07-10T08:35:37;7.97;;;5.45;;
71127;SDS011;59249;59.736;30.568;2022-07-10T08:38:08;7.63;;;5.20;;
71127;SDS011;59249;59.736;30.568;2022-07-10T08:40:37;6.15;;;4.72;;
71127;SDS011;59249;59.736;30.568;2022-07-10T08:43:07;6.80;;;5.10;;
71127;SDS011;59249;59.736;30.568;2022-07-10T08:45:35;7.28;;;5.45;;
71127;SDS011;59249;59.736;30.568;2022-07-10T08:48:04;6.25;;;5.03;;
71127;SDS011;59249;59.736;30.568;2022-07-10T08:50:37;9.15;;;5.85;;
71127;SDS011;59249;59.736;30.568;2022-07-10T08:53:15;7.00;;;5.45;;
71127;SDS011;59249;59.736;30.568;2022-07-10T08:55:46;8.57;;;5.70;;
71127;SDS011;59249;59.736;30.568;2022-07-10T08:58:15;6.22;;;4.90;;
71127;SDS011;59249;59.736;30.568;2022-07-10T09:00:46;5.75;;;4.03;;
71127;SDS011;59249;59.736;30.568;2022-07-10T09:03:16;5.82;;;3.88;;
71127;SDS011;59249;59.736;30.568;2022-07-10T09:05:46;7.45;;;4.00;;
71127;SDS011;59249;59.736;30.568;2022-07-10T09:08:23;5.57;;;4.17;;
71127;SDS011;59249;59.736;30.568;2022-07-10T09:11:13;6.93;;;4.32;;
71127;SDS011;59249;59.736;30.568;2022-07-10T09:13:50;6.28;;;4.55;;
71127;SDS011;59249;59.736;30.568;2022-07-10T09:16:20;5.45;;;3.75;;
71127;SDS011;59249;59.736;30.568;2022-07-10T09:18:52;5.47;;;3.80;;
71127;SDS011;59249;59.736;30.568;2022-07-10T09:21:21;5.63;;;4.07;;
71127;SDS011;59249;59.736;30.568;2022-07-10T09:23:57;5.78;;;3.63;;
71127;SDS011;59249;59.736;30.568;2022-07-10T09:26:28;5.13;;;3.95;;
71127;SDS011;59249;59.736;30.568;2022-07-10T09:29:06;5.88;;;4.50;;
71127;SDS011;59249;59.736;30.568;2022-07-10T09:31:48;6.20;;;4.57;;
71127;SDS011;59249;59.736;30.568;2022-07-10T09:34:18;7.50;;;4.30;;
71127;SDS011;59249;59.736;30.568;2022-07-10T09:37:18;5.95;;;4.50;;
71127;SDS011;59249;59.736;30.568;2022-07-10T09:39:54;6.05;;;3.85;;
71127;SDS011;59249;59.736;30.568;2022-07-10T09:42:31;6.78;;;4.22;;
71127;SDS011;59249;59.736;30.568;2022-07-10T09:45:13;5.20;;;3.97;;
71127;SDS011;59249;59.736;30.568;2022-07-10T09:47:53;6.67;;;4.00;;
71127;SDS011;59249;59.736;30.568;2022-07-10T09:50:25;4.95;;;3.65;;
71127;SDS011;59249;59.736;30.568;2022-07-10T09:52:56;7.32;;;5.10;;
71127;SDS011;59249;59.736;30.568;2022-07-10T09:55:32;6.38;;;4.25;;
71127;SDS011;59249;59.736;30.568;2022-07-10T09:58:01;7.00;;;4.85;;
71127;SDS011;59249;59.736;30.568;2022-07-10T10:00:32;6.23;;;4.47;;
71127;SDS011;59249;59.736;30.568;2022-07-10T10:03:01;6.70;;;4.20;;
71127;SDS011;59249;59.736;30.568;2022-07-10T10:05:35;5.88;;;4.60;;
71127;SDS011;59249;59.736;30.568;2022-07-10T10:08:10;6.93;;;4.28;;
71127;SDS011;59249;59.736;30.568;2022-07-10T10:10:44;6.78;;;4.57;;
71127;SDS011;59249;59.736;30.568;2022-07-10T10:13:15;8.17;;;5.13;;
71127;SDS011;59249;59.736;30.568;2022-07-10T10:15:46;6.93;;;4.63;;
71127;SDS011;59249;59.736;30.568;2022-07-10T10:18:16;8.05;;;5.05;;
71127;SDS011;59249;59.736;30.568;2022-07-10T10:20:47;7.53;;;5.15;;
71127;SDS011;59249;59.736;30.568;2022-07-10T10:23:16;6.95;;;5.15;;
71127;SDS011;59249;59.736;30.568;2022-07-10T10:25:49;6.00;;;4.67;;
71127;SDS011;59249;59.736;30.568;2022-07-10T10:28:19;10.13;;;4.97;;
71127;SDS011;59249;59.736;30.568;2022-07-10T10:30:51;7.93;;;4.35;;
71127;SDS011;59249;59.736;30.568;2022-07-10T10:36:13;8.85;;;3.92;;
71127;SDS011;59249;59.736;30.568;2022-07-10T10:38:59;4.90;;;4.00;;
71127;SDS011;59249;59.736;30.568;2022-07-10T10:41:36;5.72;;;3.75;;
71127;SDS011;59249;59.736;30.568;2022-07-10T10:49:49;5.35;;;3.78;;
71127;SDS011;59249;59.736;30.568;2022-07-10T10:52:19;5.43;;;3.80;;
71127;SDS011;59249;59.736;30.568;2022-07-10T10:55:04;6.57;;;3.97;;
71127;SDS011;59249;59.736;30.568;2022-07-10T10:57:39;5.63;;;4.00;;
71127;SDS011;59249;59.736;30.568;2022-07-10T11:00:33;4.50;;;2.80;;
71127;SDS011;59249;59.736;30.568;2022-07-10T11:03:13;4.97;;;2.58;;
71127;SDS011;59249;59.736;30.568;2022-07-10T11:05:47;7.00;;;2.80;;
71127;SDS011;59249;59.736;30.568;2022-07-10T11:08:36;4.63;;;2.90;;
71127;SDS011;59249;59.736;30.568;2022-07-10T11:14:12;6.75;;;3.80;;
71127;SDS011;59249;59.736;30.568;2022-07-10T11:16:46;8.00;;;4.20;;
71127;SDS011;59249;59.736;30.568;2022-07-10T11:19:20;9.20;;;4.70;;
71127;SDS011;59249;59.736;30.568;2022-07-10T11:21:54;11.00;;;6.07;;
71127;SDS011;59249;59.736;30.568;2022-07-10T11:24:33;11.05;;;5.55;;
71127;SDS011;59249;59.736;30.568;2022-07-10T11:27:15;6.03;;;3.22;;
71127;SDS011;59249;59.736;30.568;2022-07-10T11:30:15;7.00;;;3.85;;
71127;SDS011;59249;59.736;30.568;2022-07-10T11:32:44;7.03;;;4.00;;
71127;SDS011;59249;59.736;30.568;2022-07-10T11:35:18;9.32;;;3.85;;
71127;SDS011;59249;59.736;30.568;2022-07-10T11:37:50;5.18;;;3.35;;
71127;SDS011;59249;59.736;30.568;2022-07-10T11:40:20;7.40;;;3.40;;
71127;SDS011;59249;59.736;30.568;2022-07-10T11:42:51;5.18;;;3.35;;
71127;SDS011;59249;59.736;30.568;2022-07-10T11:45:24;5.87;;;3.67;;
71127;SDS011;59249;59.736;30.568;2022-07-10T11:47:54;5.30;;;3.20;;
71127;SDS011;59249;59.736;30.568;2022-07-10T11:50:25;5.38;;;3.67;;
71127;SDS011;59249;59.736;30.568;2022-07-10T11:52:57;6.15;;;3.60;;
71127;SDS011;59249;59.736;30.568;2022-07-10T11:55:26;5.40;;;3.78;;
71127;SDS011;59249;59.736;30.568;2022-07-10T11:58:15;6.07;;;4.07;;
71127;SDS011;59249;59.736;30.568;2022-07-10T12:00:59;5.40;;;4.00;;
71127;SDS011;59249;59.736;30.568;2022-07-10T12:03:34;6.75;;;3.83;;
71127;SDS011;59249;59.736;30.568;2022-07-10T12:06:04;5.20;;;3.80;;
71127;SDS011;59249;59.736;30.568;2022-07-10T12:08:44;5.43;;;3.80;;
71127;SDS011;59249;59.736;30.568;2022-07-10T12:11:17;5.87;;;4.50;;
71127;SDS011;59249;59.736;30.568;2022-07-10T12:13:49;5.47;;;4.40;;
71127;SDS011;59249;59.736;30.568;2022-07-10T12:16:25;5.72;;;4.55;;
71127;SDS011;59249;59.736;30.568;2022-07-10T12:19:01;8.00;;;4.70;;
71127;SDS011;59249;59.736;30.568;2022-07-10T12:21:31;5.82;;;3.65;;
71127;SDS011;59249;59.736;30.568;2022-07-10T12:24:02;3.70;;;2.67;;
71127;SDS011;59249;59.736;30.568;2022-07-10T12:26:36;4.57;;;2.40;;
71127;SDS011;59249;59.736;30.568;2022-07-10T12:29:13;4.25;;;2.35;;
71127;SDS011;59249;59.736;30.568;2022-07-10T12:31:51;3.53;;;2.00;;
71127;SDS011;59249;59.736;30.568;2022-07-10T12:34:32;4.25;;;1.80;;
71127;SDS011;59249;59.736;30.568;2022-07-10T12:37:12;4.33;;;2.67;;
71127;SDS011;59249;59.736;30.568;2022-07-10T12:39:46;4.20;;;2.10;;
71127;SDS011;59249;59.736;30.568;2022-07-10T12:42:24;4.80;;;2.00;;
71127;SDS011;59249;59.736;30.568;2022-07-10T12:45:08;4.28;;;2.50;;
71127;SDS011;59249;59.736;30.568;2022-07-10T12:47:44;6.22;;;2.30;;
71127;SDS011;59249;59.736;30.568;2022-07-10T12:50:22;5.43;;;2.47;;
71127;SDS011;59249;59.736;30.568;2022-07-10T12:53:06;5.25;;;2.35;;
71127;SDS011;59249;59.736;30.568;2022-07-10T12:55:38;3.75;;;2.08;;
71127;SDS011;59249;59.736;30.568;2022-07-10T12:58:08;6.10;;;2.33;;
71127;SDS011;59249;59.736;30.568;2022-07-10T13:00:43;4.32;;;2.10;;
71127;SDS011;59249;59.736;30.568;2022-07-10T13:03:18;6.63;;;2.47;;
71127;SDS011;59249;59.736;30.568;2022-07-10T13:05:49;4.70;;;2.13;;
71127;SDS011;59249;59.736;30.568;2022-07-10T13:08:23;4.22;;;2.10;;
71127;SDS011;59249;59.736;30.568;2022-07-10T13:10:52;4.65;;;2.65;;
71127;SDS011;59249;59.736;30.568;2022-07-10T13:13:28;4.25;;;2.75;;
71127;SDS011;59249;59.736;30.568;2022-07-10T13:15:59;4.33;;;2.40;;
71127;SDS011;59249;59.736;30.568;2022-07-10T13:18:37;4.30;;;2.50;;
71127;SDS011;59249;59.736;30.568;2022-07-10T13:21:07;6.10;;;2.80;;
71127;SDS011;59249;59.736;30.568;2022-07-10T13:23:38;5.18;;;3.00;;
71127;SDS011;59249;59.736;30.568;2022-07-10T13:26:10;4.20;;;2.45;;
71127;SDS011;59249;59.736;30.568;2022-07-10T13:28:47;5.07;;;2.87;;
71127;SDS011;59249;59.736;30.568;2022-07-10T13:31:17;5.72;;;3.47;;
71127;SDS011;59249;59.736;30.568;2022-07-10T13:33:48;6.25;;;3.03;;
71127;SDS011;59249;59.736;30.568;2022-07-10T13:36:17;6.50;;;3.17;;
71127;SDS011;59249;59.736;30.568;2022-07-10T13:38:47;5.28;;;2.95;;
71127;SDS011;59249;59.736;30.568;2022-07-10T13:41:17;3.93;;;2.70;;
71127;SDS011;59249;59.736;30.568;2022-07-10T13:43:49;5.35;;;2.60;;
71127;SDS011;59249;59.736;30.568;2022-07-10T13:46:18;4.30;;;2.45;;
71127;SDS011;59249;59.736;30.568;2022-07-10T13:48:49;5.82;;;3.10;;
71127;SDS011;59249;59.736;30.568;2022-07-10T13:51:17;4.50;;;2.92;;
71127;SDS011;59249;59.736;30.568;2022-07-10T13:53:52;5.00;;;2.83;;
71127;SDS011;59249;59.736;30.568;2022-07-10T13:56:23;6.45;;;3.10;;
71127;SDS011;59249;59.736;30.568;2022-07-10T13:58:52;4.85;;;2.83;;
71127;SDS011;59249;59.736;30.568;2022-07-10T14:01:26;4.18;;;2.60;;
71127;SDS011;59249;59.736;30.568;2022-07-10T14:03:57;4.70;;;2.60;;
71127;SDS011;59249;59.736;30.568;2022-07-10T14:06:26;4.70;;;2.57;;
71127;SDS011;59249;59.736;30.568;2022-07-10T14:08:55;4.68;;;2.78;;
71127;SDS011;59249;59.736;30.568;2022-07-10T14:11:24;5.88;;;2.97;;
71127;SDS011;59249;59.736;30.568;2022-07-10T14:13:53;4.63;;;3.17;;
71127;SDS011;59249;59.736;30.568;2022-07-10T14:16:22;6.63;;;2.60;;
71127;SDS011;59249;59.736;30.568;2022-07-10T14:18:51;3.83;;;2.43;;
71127;SDS011;59249;59.736;30.568;2022-07-10T14:21:22;5.15;;;3.20;;
71127;SDS011;59249;59.736;30.568;2022-07-10T14:23:54;4.90;;;2.90;;
71127;SDS011;59249;59.736;30.568;2022-07-10T14:26:24;4.88;;;3.53;;
71127;SDS011;59249;59.736;30.568;2022-07-10T14:28:54;4.88;;;3.15;;
71127;SDS011;59249;59.736;30.568;2022-07-10T14:31:23;5.40;;;3.10;;
71127;SDS011;59249;59.736;30.568;2022-07-10T14:33:55;5.65;;;3.17;;
71127;SDS011;59249;59.736;30.568;2022-07-10T14:36:25;4.00;;;2.80;;
71127;SDS011;59249;59.736;30.568;2022-07-10T14:38:54;6.97;;;3.30;;
71127;SDS011;59249;59.736;30.568;2022-07-10T14:41:23;5.55;;;3.75;;
71127;SDS011;59249;59.736;30.568;2022-07-10T14:43:54;6.73;;;4.07;;
71127;SDS011;59249;59.736;30.568;2022-07-10T14:46:26;5.50;;;3.30;;
71127;SDS011;59249;59.736;30.568;2022-07-10T14:48:56;5.07;;;3.30;;
71127;SDS011;59249;59.736;30.568;2022-07-10T14:51:27;8.18;;;3.80;;
71127;SDS011;59249;59.736;30.568;2022-07-10T14:53:57;6.03;;;3.78;;
71127;SDS011;59249;59.736;30.568;2022-07-10T14:56:34;5.60;;;3.80;;
71127;SDS011;59249;59.736;30.568;2022-07-10T14:59:04;6.25;;;4.32;;
71127;SDS011;59249;59.736;30.568;2022-07-10T15:01:42;5.95;;;3.60;;
71127;SDS011;59249;59.736;30.568;2022-07-10T15:04:11;5.25;;;3.70;;
71127;SDS011;59249;59.736;30.568;2022-07-10T15:06:47;5.50;;;3.85;;
71127;SDS011;59249;59.736;30.568;2022-07-10T15:09:16;6.33;;;4.27;;